sensor_id;sensor_type;location;lat;lon;timestamp;P1;durP1;ratioP1;P2;durP2;ratioP2
27491;SDS011;14927;51.210;6.838;2023-08-31T00:00:39;5.45;;;2.00;;
27491;SDS011;14927;51.210;6.838;2023-08-31T00:03:31;5.57;;;1.75;;
27491;SDS011;14927;51.210;6.838;2023-08-31T00:06:16;4.05;;;1.73;;
27491;SDS011;14927;51.210;6.838;2023-08-31T00:09:01;4.75;;;1.50;;
27491;SDS011;14927;51.210;6.838;2023-08-31T00:11:48;4.72;;;1.70;;
27491;SDS011;14927;51.210;6.838;2023-08-31T00:14:32;8.75;;;2.50;;
27491;SDS011;14927;51.210;6.838;2023-08-31T00:17:17;6.07;;;1.80;;
27491;SDS011;14927;51.210;6.838;2023-08-31T00:20:02;4.75;;;2.00;;
27491;SDS011;14927;51.210;6.838;2023-08-31T00:22:49;3.22;;;1.42;;
27491;SDS011;14927;51.210;6.838;2023-08-31T00:25:34;3.05;;;1.67;;
27491;SDS011;14927;51.210;6.838;2023-08-31T00:28:19;6.20;;;1.85;;
27491;SDS011;14927;51.210;6.838;2023-08-31T00:31:04;10.15;;;2.05;;
27491;SDS011;14927;51.210;6.838;2023-08-31T00:33:48;9.55;;;1.60;;
27491;SDS011;14927;51.210;6.838;2023-08-31T00:36:33;6.38;;;1.95;;
27491;SDS011;14927;51.210;6.838;2023-08-31T00:39:18;8.25;;;1.70;;
27491;SDS011;14927;51.210;6.838;2023-08-31T00:42:04;9.05;;;2.03;;
27491;SDS011;14927;51.210;6.838;2023-08-31T00:44:49;5.20;;;1.90;;
27491;SDS011;14927;51.210;6.838;2023-08-31T00:47:33;6.10;;;1.40;;
27491;SDS011;14927;51.210;6.838;2023-08-31T00:50:18;6.97;;;2.05;;
27491;SDS011;14927;51.210;6.838;2023-08-31T00:53:04;5.78;;;2.05;;
27491;SDS011;14927;51.210;6.838;2023-08-31T00:55:50;5.95;;;1.58;;
27491;SDS011;14927;51.210;6.838;2023-08-31T00:58:34;6.50;;;2.20;;
27491;SDS011;14927;51.210;6.838;2023-08-31T01:11:12;5.65;;;1.67;;
27491;SDS011;14927;51.210;6.838;2023-08-31T01:14:19;7.00;;;1.88;;
27491;SDS011;14927;51.210;6.838;2023-08-31T01:17:09;7.50;;;2.03;;
27491;SDS011;14927;51.210;6.838;2023-08-31T01:19:58;6.25;;;1.60;;
27491;SDS011;14927;51.210;6.838;2023-08-31T01:22:48;6.78;;;2.30;;
27491;SDS011;14927;51.210;6.838;2023-08-31T01:25:44;6.75;;;2.10;;
27491;SDS011;14927;51.210;6.838;2023-08-31T01:28:29;4.32;;;1.92;;
27491;SDS011;14927;51.210;6.838;2023-08-31T01:31:15;3.60;;;2.00;;
27491;SDS011;14927;51.210;6.838;2023-08-31T01:34:00;4.30;;;1.98;;
27491;SDS011;14927;51.210;6.838;2023-08-31T01:36:46;6.57;;;1.95;;
27491;SDS011;14927;51.210;6.838;2023-08-31T01:39:41;6.25;;;2.22;;
27491;SDS011;14927;51.210;6.838;2023-08-31T01:42:34;5.43;;;2.10;;
27491;SDS011;14927;51.210;6.838;2023-08-31T01:45:20;7.20;;;2.53;;
27491;SDS011;14927;51.210;6.838;2023-08-31T01:48:06;6.03;;;1.88;;
27491;SDS011;14927;51.210;6.838;2023-08-31T01:50:51;4.10;;;1.98;;
27491;SDS011;14927;51.210;6.838;2023-08-31T01:53:39;4.57;;;2.00;;
27491;SDS011;14927;51.210;6.838;2023-08-31T01:56:24;3.30;;;2.17;;
27491;SDS011;14927;51.210;6.838;2023-08-31T01:59:09;6.07;;;2.10;;
27491;SDS011;14927;51.210;6.838;2023-08-31T02:01:53;4.65;;;1.98;;
27491;SDS011;14927;51.210;6.838;2023-08-31T02:04:38;5.00;;;1.70;;
27491;SDS011;14927;51.210;6.838;2023-08-31T02:07:22;2.83;;;1.63;;
27491;SDS011;14927;51.210;6.838;2023-08-31T02:10:07;5.47;;;1.73;;
27491;SDS011;14927;51.210;6.838;2023-08-31T02:12:52;3.03;;;1.70;;
27491;SDS011;14927;51.210;6.838;2023-08-31T02:15:40;3.97;;;1.70;;
27491;SDS011;14927;51.210;6.838;2023-08-31T02:18:24;4.85;;;2.08;;
27491;SDS011;14927;51.210;6.838;2023-08-31T02:21:09;5.18;;;1.50;;
27491;SDS011;14927;51.210;6.838;2023-08-31T02:23:53;3.38;;;1.80;;
27491;SDS011;14927;51.210;6.838;2023-08-31T02:26:38;4.25;;;1.75;;
27491;SDS011;14927;51.210;6.838;2023-08-31T02:29:23;4.70;;;2.40;;
27491;SDS011;14927;51.210;6.838;2023-08-31T02:32:07;5.05;;;1.80;;
27491;SDS011;14927;51.210;6.838;2023-08-31T02:34:52;4.35;;;1.60;;
27491;SDS011;14927;51.210;6.838;2023-08-31T02:37:37;3.67;;;1.58;;
27491;SDS011;14927;51.210;6.838;2023-08-31T02:40:22;3.90;;;2.03;;
27491;SDS011;14927;51.210;6.838;2023-08-31T02:43:08;4.20;;;2.00;;
27491;SDS011;14927;51.210;6.838;2023-08-31T02:46:02;5.25;;;1.70;;
27491;SDS011;14927;51.210;6.838;2023-08-31T02:48:47;3.47;;;1.60;;
27491;SDS011;14927;51.210;6.838;2023-08-31T02:51:34;3.67;;;1.70;;
27491;SDS011;14927;51.210;6.838;2023-08-31T02:54:19;3.75;;;1.60;;
27491;SDS011;14927;51.210;6.838;2023-08-31T02:57:04;3.40;;;1.70;;
27491;SDS011;14927;51.210;6.838;2023-08-31T02:59:49;5.18;;;1.98;;
27491;SDS011;14927;51.210;6.838;2023-08-31T03:02:34;2.47;;;1.50;;
27491;SDS011;14927;51.210;6.838;2023-08-31T03:05:19;5.65;;;1.40;;
27491;SDS011;14927;51.210;6.838;2023-08-31T03:08:06;3.28;;;1.67;;
27491;SDS011;14927;51.210;6.838;2023-08-31T03:10:51;3.67;;;1.80;;
27491;SDS011;14927;51.210;6.838;2023-08-31T03:13:37;2.08;;;1.25;;
27491;SDS011;14927;51.210;6.838;2023-08-31T03:16:21;3.10;;;1.30;;
27491;SDS011;14927;51.210;6.838;2023-08-31T03:19:06;4.13;;;1.60;;
27491;SDS011;14927;51.210;6.838;2023-08-31T03:21:50;3.97;;;1.23;;
27491;SDS011;14927;51.210;6.838;2023-08-31T03:24:35;2.63;;;1.15;;
27491;SDS011;14927;51.210;6.838;2023-08-31T03:27:20;1.75;;;1.15;;
27491;SDS011;14927;51.210;6.838;2023-08-31T03:30:04;4.82;;;1.63;;
27491;SDS011;14927;51.210;6.838;2023-08-31T03:32:50;2.17;;;1.52;;
27491;SDS011;14927;51.210;6.838;2023-08-31T03:35:35;2.30;;;1.60;;
27491;SDS011;14927;51.210;6.838;2023-08-31T03:38:19;2.67;;;1.38;;
27491;SDS011;14927;51.210;6.838;2023-08-31T03:41:04;4.82;;;1.23;;
27491;SDS011;14927;51.210;6.838;2023-08-31T03:43:49;6.57;;;1.65;;
27491;SDS011;14927;51.210;6.838;2023-08-31T03:46:33;5.80;;;2.17;;
27491;SDS011;14927;51.210;6.838;2023-08-31T03:49:18;3.78;;;1.55;;
27491;SDS011;14927;51.210;6.838;2023-08-31T03:52:02;1.98;;;1.42;;
27491;SDS011;14927;51.210;6.838;2023-08-31T03:54:47;2.13;;;1.80;;
27491;SDS011;14927;51.210;6.838;2023-08-31T03:57:32;3.35;;;2.00;;
27491;SDS011;14927;51.210;6.838;2023-08-31T04:00:16;2.22;;;1.50;;
27491;SDS011;14927;51.210;6.838;2023-08-31T04:03:01;4.85;;;2.00;;
27491;SDS011;14927;51.210;6.838;2023-08-31T04:05:46;3.90;;;1.80;;
27491;SDS011;14927;51.210;6.838;2023-08-31T04:08:30;3.88;;;1.98;;
27491;SDS011;14927;51.210;6.838;2023-08-31T04:11:15;7.28;;;2.20;;
27491;SDS011;14927;51.210;6.838;2023-08-31T04:13:59;5.13;;;1.90;;
27491;SDS011;14927;51.210;6.838;2023-08-31T04:16:45;3.78;;;2.15;;
27491;SDS011;14927;51.210;6.838;2023-08-31T04:19:33;3.67;;;2.40;;
27491;SDS011;14927;51.210;6.838;2023-08-31T04:22:18;5.85;;;2.47;;
27491;SDS011;14927;51.210;6.838;2023-08-31T04:25:02;5.50;;;1.98;;
27491;SDS011;14927;51.210;6.838;2023-08-31T04:27:47;4.32;;;1.92;;
27491;SDS011;14927;51.210;6.838;2023-08-31T04:30:32;4.30;;;2.53;;
27491;SDS011;14927;51.210;6.838;2023-08-31T04:33:17;4.40;;;2.20;;
27491;SDS011;14927;51.210;6.838;2023-08-31T04:36:02;11.57;;;2.70;;
27491;SDS011;14927;51.210;6.838;2023-08-31T04:38:48;4.43;;;2.92;;
27491;SDS011;14927;51.210;6.838;2023-08-31T04:41:32;4.78;;;3.17;;
27491;SDS011;14927;51.210;6.838;2023-08-31T04:44:17;4.75;;;2.70;;
27491;SDS011;14927;51.210;6.838;2023-08-31T04:47:01;3.85;;;2.38;;
27491;SDS011;14927;51.210;6.838;2023-08-31T04:49:46;7.47;;;2.97;;
27491;SDS011;14927;51.210;6.838;2023-08-31T04:52:31;3.45;;;2.15;;
27491;SDS011;14927;51.210;6.838;2023-08-31T04:55:16;8.18;;;2.80;;
27491;SDS011;14927;51.210;6.838;2023-08-31T04:58:01;6.13;;;2.58;;
27491;SDS011;14927;51.210;6.838;2023-08-31T05:00:45;4.72;;;2.25;;
27491;SDS011;14927;51.210;6.838;2023-08-31T05:03:31;4.70;;;2.53;;
27491;SDS011;14927;51.210;6.838;2023-08-31T05:06:16;6.13;;;2.45;;
27491;SDS011;14927;51.210;6.838;2023-08-31T05:09:01;5.68;;;2.53;;
27491;SDS011;14927;51.210;6.838;2023-08-31T05:11:50;8.02;;;2.85;;
27491;SDS011;14927;51.210;6.838;2023-08-31T05:14:37;6.18;;;2.67;;
27491;SDS011;14927;51.210;6.838;2023-08-31T05:17:24;3.42;;;2.70;;
27491;SDS011;14927;51.210;6.838;2023-08-31T05:20:08;7.97;;;3.20;;
27491;SDS011;14927;51.210;6.838;2023-08-31T05:22:53;8.63;;;2.63;;
27491;SDS011;14927;51.210;6.838;2023-08-31T05:25:42;6.13;;;3.08;;
27491;SDS011;14927;51.210;6.838;2023-08-31T05:28:28;8.32;;;3.03;;
27491;SDS011;14927;51.210;6.838;2023-08-31T05:31:12;5.10;;;2.95;;
27491;SDS011;14927;51.210;6.838;2023-08-31T05:33:57;10.02;;;3.38;;
27491;SDS011;14927;51.210;6.838;2023-08-31T05:36:42;10.23;;;3.75;;
27491;SDS011;14927;51.210;6.838;2023-08-31T05:39:27;5.82;;;3.28;;
27491;SDS011;14927;51.210;6.838;2023-08-31T05:42:11;6.43;;;3.35;;
27491;SDS011;14927;51.210;6.838;2023-08-31T05:44:57;6.93;;;3.10;;
27491;SDS011;14927;51.210;6.838;2023-08-31T05:47:41;5.38;;;3.13;;
27491;SDS011;14927;51.210;6.838;2023-08-31T05:50:26;9.68;;;2.65;;
27491;SDS011;14927;51.210;6.838;2023-08-31T05:53:11;6.85;;;3.22;;
27491;SDS011;14927;51.210;6.838;2023-08-31T05:55:56;7.15;;;3.15;;
27491;SDS011;14927;51.210;6.838;2023-08-31T05:58:50;6.03;;;3.05;;
27491;SDS011;14927;51.210;6.838;2023-08-31T06:01:38;6.70;;;2.90;;
27491;SDS011;14927;51.210;6.838;2023-08-31T06:04:23;7.70;;;3.00;;
27491;SDS011;14927;51.210;6.838;2023-08-31T06:07:07;4.10;;;2.70;;
27491;SDS011;14927;51.210;6.838;2023-08-31T06:09:52;8.45;;;3.28;;
27491;SDS011;14927;51.210;6.838;2023-08-31T06:12:37;6.68;;;2.60;;
27491;SDS011;14927;51.210;6.838;2023-08-31T06:15:21;7.13;;;2.95;;
27491;SDS011;14927;51.210;6.838;2023-08-31T06:18:06;3.88;;;2.83;;
27491;SDS011;14927;51.210;6.838;2023-08-31T06:20:51;6.60;;;3.28;;
27491;SDS011;14927;51.210;6.838;2023-08-31T06:23:36;4.88;;;2.65;;
27491;SDS011;14927;51.210;6.838;2023-08-31T06:26:20;3.83;;;2.85;;
27491;SDS011;14927;51.210;6.838;2023-08-31T06:29:05;5.53;;;2.80;;
27491;SDS011;14927;51.210;6.838;2023-08-31T06:31:51;8.55;;;2.83;;
27491;SDS011;14927;51.210;6.838;2023-08-31T06:34:36;4.95;;;2.38;;
27491;SDS011;14927;51.210;6.838;2023-08-31T06:37:20;10.23;;;2.67;;
27491;SDS011;14927;51.210;6.838;2023-08-31T06:40:07;7.70;;;2.88;;
27491;SDS011;14927;51.210;6.838;2023-08-31T06:42:54;5.70;;;2.67;;
27491;SDS011;14927;51.210;6.838;2023-08-31T06:45:38;6.10;;;2.45;;
27491;SDS011;14927;51.210;6.838;2023-08-31T06:48:23;6.78;;;2.25;;
27491;SDS011;14927;51.210;6.838;2023-08-31T06:51:09;5.57;;;3.05;;
27491;SDS011;14927;51.210;6.838;2023-08-31T06:53:53;5.32;;;2.47;;
27491;SDS011;14927;51.210;6.838;2023-08-31T06:56:40;5.25;;;2.35;;
27491;SDS011;14927;51.210;6.838;2023-08-31T06:59:25;4.55;;;2.22;;
27491;SDS011;14927;51.210;6.838;2023-08-31T07:02:09;5.68;;;2.38;;
27491;SDS011;14927;51.210;6.838;2023-08-31T07:04:54;5.65;;;2.30;;
27491;SDS011;14927;51.210;6.838;2023-08-31T07:07:39;4.70;;;1.98;;
27491;SDS011;14927;51.210;6.838;2023-08-31T07:10:26;9.75;;;2.08;;
27491;SDS011;14927;51.210;6.838;2023-08-31T07:13:11;4.55;;;2.35;;
27491;SDS011;14927;51.210;6.838;2023-08-31T07:15:59;5.65;;;2.17;;
27491;SDS011;14927;51.210;6.838;2023-08-31T07:18:46;4.72;;;2.20;;
27491;SDS011;14927;51.210;6.838;2023-08-31T07:21:31;5.38;;;2.20;;
27491;SDS011;14927;51.210;6.838;2023-08-31T07:24:23;6.10;;;1.90;;
27491;SDS011;14927;51.210;6.838;2023-08-31T07:27:13;4.07;;;2.38;;
27491;SDS011;14927;51.210;6.838;2023-08-31T07:30:01;8.13;;;2.67;;
27491;SDS011;14927;51.210;6.838;2023-08-31T07:32:48;4.78;;;2.00;;
27491;SDS011;14927;51.210;6.838;2023-08-31T07:35:35;4.53;;;2.00;;
27491;SDS011;14927;51.210;6.838;2023-08-31T07:38:19;4.07;;;1.70;;
27491;SDS011;14927;51.210;6.838;2023-08-31T07:41:04;5.65;;;1.67;;
27491;SDS011;14927;51.210;6.838;2023-08-31T07:43:50;9.77;;;2.38;;
27491;SDS011;14927;51.210;6.838;2023-08-31T07:46:34;5.68;;;2.20;;
27491;SDS011;14927;51.210;6.838;2023-08-31T07:49:19;4.53;;;1.90;;
27491;SDS011;14927;51.210;6.838;2023-08-31T07:52:04;4.30;;;2.20;;
27491;SDS011;14927;51.210;6.838;2023-08-31T07:54:49;4.57;;;1.75;;
27491;SDS011;14927;51.210;6.838;2023-08-31T07:57:33;3.78;;;1.90;;
27491;SDS011;14927;51.210;6.838;2023-08-31T08:00:18;5.55;;;2.17;;
27491;SDS011;14927;51.210;6.838;2023-08-31T08:03:03;5.38;;;1.90;;
27491;SDS011;14927;51.210;6.838;2023-08-31T08:05:48;5.72;;;2.33;;
27491;SDS011;14927;51.210;6.838;2023-08-31T08:08:33;3.78;;;1.77;;
27491;SDS011;14927;51.210;6.838;2023-08-31T08:11:18;10.90;;;2.22;;
27491;SDS011;14927;51.210;6.838;2023-08-31T08:14:02;4.10;;;1.65;;
27491;SDS011;14927;51.210;6.838;2023-08-31T08:16:47;2.97;;;1.92;;
27491;SDS011;14927;51.210;6.838;2023-08-31T08:19:31;6.63;;;2.05;;
27491;SDS011;14927;51.210;6.838;2023-08-31T08:22:17;2.55;;;1.70;;
27491;SDS011;14927;51.210;6.838;2023-08-31T08:25:02;4.70;;;1.80;;
27491;SDS011;14927;51.210;6.838;2023-08-31T08:27:48;4.28;;;1.75;;
27491;SDS011;14927;51.210;6.838;2023-08-31T08:30:33;3.17;;;1.90;;
27491;SDS011;14927;51.210;6.838;2023-08-31T08:33:17;4.85;;;1.70;;
27491;SDS011;14927;51.210;6.838;2023-08-31T08:36:02;6.22;;;2.38;;
27491;SDS011;14927;51.210;6.838;2023-08-31T08:38:47;6.53;;;1.70;;
27491;SDS011;14927;51.210;6.838;2023-08-31T08:41:32;4.90;;;1.58;;
27491;SDS011;14927;51.210;6.838;2023-08-31T08:44:19;3.88;;;1.80;;
27491;SDS011;14927;51.210;6.838;2023-08-31T08:47:11;1.88;;;1.50;;
27491;SDS011;14927;51.210;6.838;2023-08-31T08:49:57;4.25;;;1.60;;
27491;SDS011;14927;51.210;6.838;2023-08-31T08:52:43;7.15;;;2.00;;
27491;SDS011;14927;51.210;6.838;2023-08-31T08:55:29;3.67;;;1.60;;
27491;SDS011;14927;51.210;6.838;2023-08-31T08:58:14;5.40;;;1.63;;
27491;SDS011;14927;51.210;6.838;2023-08-31T09:00:59;8.00;;;1.75;;
27491;SDS011;14927;51.210;6.838;2023-08-31T09:03:43;3.67;;;1.98;;
27491;SDS011;14927;51.210;6.838;2023-08-31T09:06:28;2.85;;;1.20;;
27491;SDS011;14927;51.210;6.838;2023-08-31T09:09:13;4.80;;;1.80;;
27491;SDS011;14927;51.210;6.838;2023-08-31T09:12:08;5.72;;;2.00;;
27491;SDS011;14927;51.210;6.838;2023-08-31T09:14:56;2.80;;;1.63;;
27491;SDS011;14927;51.210;6.838;2023-08-31T09:17:45;4.43;;;1.40;;
27491;SDS011;14927;51.210;6.838;2023-08-31T09:20:31;1.98;;;1.17;;
27491;SDS011;14927;51.210;6.838;2023-08-31T09:23:27;3.92;;;1.63;;
27491;SDS011;14927;51.210;6.838;2023-08-31T09:26:12;4.07;;;1.45;;
27491;SDS011;14927;51.210;6.838;2023-08-31T09:28:57;4.50;;;1.38;;
27491;SDS011;14927;51.210;6.838;2023-08-31T09:31:42;5.55;;;1.42;;
27491;SDS011;14927;51.210;6.838;2023-08-31T09:34:34;7.25;;;2.08;;
27491;SDS011;14927;51.210;6.838;2023-08-31T09:37:20;2.83;;;1.25;;
27491;SDS011;14927;51.210;6.838;2023-08-31T09:40:05;3.28;;;1.40;;
27491;SDS011;14927;51.210;6.838;2023-08-31T09:42:51;5.50;;;1.52;;
27491;SDS011;14927;51.210;6.838;2023-08-31T09:45:35;4.80;;;1.50;;
27491;SDS011;14927;51.210;6.838;2023-08-31T09:48:22;1.95;;;1.15;;
27491;SDS011;14927;51.210;6.838;2023-08-31T09:51:07;5.05;;;1.88;;
27491;SDS011;14927;51.210;6.838;2023-08-31T09:53:55;4.28;;;1.67;;
27491;SDS011;14927;51.210;6.838;2023-08-31T09:56:42;4.13;;;1.42;;
27491;SDS011;14927;51.210;6.838;2023-08-31T09:59:30;5.10;;;1.38;;
27491;SDS011;14927;51.210;6.838;2023-08-31T10:02:15;2.25;;;1.25;;
27491;SDS011;14927;51.210;6.838;2023-08-31T10:05:01;5.22;;;1.58;;
27491;SDS011;14927;51.210;6.838;2023-08-31T10:07:47;2.55;;;1.35;;
27491;SDS011;14927;51.210;6.838;2023-08-31T10:10:37;2.95;;;1.10;;
27491;SDS011;14927;51.210;6.838;2023-08-31T10:13:30;3.00;;;1.30;;
27491;SDS011;14927;51.210;6.838;2023-08-31T10:16:19;10.52;;;1.58;;
27491;SDS011;14927;51.210;6.838;2023-08-31T10:19:05;7.72;;;1.60;;
27491;SDS011;14927;51.210;6.838;2023-08-31T10:21:50;4.65;;;1.23;;
27491;SDS011;14927;51.210;6.838;2023-08-31T10:24:56;3.58;;;1.30;;
27491;SDS011;14927;51.210;6.838;2023-08-31T10:27:44;4.60;;;1.23;;
27491;SDS011;14927;51.210;6.838;2023-08-31T10:33:20;4.75;;;1.48;;
27491;SDS011;14927;51.210;6.838;2023-08-31T10:36:09;4.50;;;1.55;;
27491;SDS011;14927;51.210;6.838;2023-08-31T10:39:17;3.30;;;1.10;;
27491;SDS011;14927;51.210;6.838;2023-08-31T10:42:03;5.70;;;1.52;;
27491;SDS011;14927;51.210;6.838;2023-08-31T10:44:50;3.25;;;1.05;;
27491;SDS011;14927;51.210;6.838;2023-08-31T10:47:41;5.60;;;1.50;;
27491;SDS011;14927;51.210;6.838;2023-08-31T10:50:26;7.70;;;1.45;;
27491;SDS011;14927;51.210;6.838;2023-08-31T10:53:14;6.10;;;1.60;;
27491;SDS011;14927;51.210;6.838;2023-08-31T10:55:58;6.38;;;2.30;;
27491;SDS011;14927;51.210;6.838;2023-08-31T10:58:54;5.00;;;1.30;;
27491;SDS011;14927;51.210;6.838;2023-08-31T11:01:52;4.60;;;1.42;;
27491;SDS011;14927;51.210;6.838;2023-08-31T11:04:55;7.53;;;2.20;;
27491;SDS011;14927;51.210;6.838;2023-08-31T11:07:58;5.25;;;1.38;;
27491;SDS011;14927;51.210;6.838;2023-08-31T11:10:45;3.28;;;1.55;;
27491;SDS011;14927;51.210;6.838;2023-08-31T11:13:36;5.88;;;1.42;;
27491;SDS011;14927;51.210;6.838;2023-08-31T11:16:21;5.07;;;1.40;;
27491;SDS011;14927;51.210;6.838;2023-08-31T11:19:06;7.38;;;1.33;;
27491;SDS011;14927;51.210;6.838;2023-08-31T11:21:51;5.20;;;1.67;;
27491;SDS011;14927;51.210;6.838;2023-08-31T11:24:35;3.88;;;1.23;;
27491;SDS011;14927;51.210;6.838;2023-08-31T11:27:21;4.40;;;1.60;;
27491;SDS011;14927;51.210;6.838;2023-08-31T11:33:17;4.40;;;1.48;;
27491;SDS011;14927;51.210;6.838;2023-08-31T11:36:02;3.97;;;1.30;;
27491;SDS011;14927;51.210;6.838;2023-08-31T11:38:49;4.85;;;0.90;;
27491;SDS011;14927;51.210;6.838;2023-08-31T11:41:34;3.95;;;1.13;;
27491;SDS011;14927;51.210;6.838;2023-08-31T11:44:21;4.97;;;1.33;;
27491;SDS011;14927;51.210;6.838;2023-08-31T11:47:06;6.50;;;1.50;;
27491;SDS011;14927;51.210;6.838;2023-08-31T11:49:51;2.75;;;1.30;;
27491;SDS011;14927;51.210;6.838;2023-08-31T11:52:35;3.85;;;1.58;;
27491;SDS011;14927;51.210;6.838;2023-08-31T11:55:21;6.63;;;1.70;;
27491;SDS011;14927;51.210;6.838;2023-08-31T11:58:06;4.78;;;1.60;;
27491;SDS011;14927;51.210;6.838;2023-08-31T12:00:58;4.30;;;1.50;;
27491;SDS011;14927;51.210;6.838;2023-08-31T12:03:44;3.85;;;1.25;;
27491;SDS011;14927;51.210;6.838;2023-08-31T12:06:29;12.43;;;1.45;;
27491;SDS011;14927;51.210;6.838;2023-08-31T12:09:14;4.03;;;1.30;;
27491;SDS011;14927;51.210;6.838;2023-08-31T12:12:03;5.93;;;1.40;;
27491;SDS011;14927;51.210;6.838;2023-08-31T12:14:52;3.65;;;1.00;;
27491;SDS011;14927;51.210;6.838;2023-08-31T12:17:38;3.50;;;1.33;;
27491;SDS011;14927;51.210;6.838;2023-08-31T12:20:34;7.28;;;2.00;;
27491;SDS011;14927;51.210;6.838;2023-08-31T12:23:34;3.33;;;1.15;;
27491;SDS011;14927;51.210;6.838;2023-08-31T12:26:19;5.53;;;1.30;;
27491;SDS011;14927;51.210;6.838;2023-08-31T12:29:04;6.45;;;1.33;;
27491;SDS011;14927;51.210;6.838;2023-08-31T12:31:49;3.33;;;1.40;;
27491;SDS011;14927;51.210;6.838;2023-08-31T12:34:34;3.25;;;1.13;;
27491;SDS011;14927;51.210;6.838;2023-08-31T12:37:22;3.40;;;1.08;;
27491;SDS011;14927;51.210;6.838;2023-08-31T12:40:07;3.55;;;1.10;;
27491;SDS011;14927;51.210;6.838;2023-08-31T12:42:53;3.75;;;1.17;;
27491;SDS011;14927;51.210;6.838;2023-08-31T12:45:38;2.53;;;1.15;;
27491;SDS011;14927;51.210;6.838;2023-08-31T12:48:23;5.72;;;1.23;;
27491;SDS011;14927;51.210;6.838;2023-08-31T12:51:07;2.58;;;1.20;;
27491;SDS011;14927;51.210;6.838;2023-08-31T12:53:52;3.33;;;1.27;;
27491;SDS011;14927;51.210;6.838;2023-08-31T12:56:37;3.80;;;1.25;;
27491;SDS011;14927;51.210;6.838;2023-08-31T12:59:21;2.50;;;1.23;;
27491;SDS011;14927;51.210;6.838;2023-08-31T13:02:06;4.82;;;1.20;;
27491;SDS011;14927;51.210;6.838;2023-08-31T13:04:54;6.07;;;1.50;;
27491;SDS011;14927;51.210;6.838;2023-08-31T13:07:38;7.32;;;1.40;;
27491;SDS011;14927;51.210;6.838;2023-08-31T13:10:23;3.70;;;1.33;;
27491;SDS011;14927;51.210;6.838;2023-08-31T13:13:08;2.92;;;1.40;;
27491;SDS011;14927;51.210;6.838;2023-08-31T13:19:45;3.55;;;1.20;;
27491;SDS011;14927;51.210;6.838;2023-08-31T13:22:29;3.58;;;1.20;;
27491;SDS011;14927;51.210;6.838;2023-08-31T13:25:14;4.47;;;1.05;;
27491;SDS011;14927;51.210;6.838;2023-08-31T13:27:59;3.63;;;1.17;;
27491;SDS011;14927;51.210;6.838;2023-08-31T13:30:44;4.72;;;1.10;;
27491;SDS011;14927;51.210;6.838;2023-08-31T13:33:28;3.70;;;1.65;;
27491;SDS011;14927;51.210;6.838;2023-08-31T13:36:13;4.80;;;1.30;;
27491;SDS011;14927;51.210;6.838;2023-08-31T13:38:58;3.17;;;1.70;;
27491;SDS011;14927;51.210;6.838;2023-08-31T13:41:46;3.55;;;1.38;;
27491;SDS011;14927;51.210;6.838;2023-08-31T13:44:32;4.60;;;1.35;;
27491;SDS011;14927;51.210;6.838;2023-08-31T13:47:25;3.15;;;1.23;;
27491;SDS011;14927;51.210;6.838;2023-08-31T13:50:10;4.43;;;1.23;;
27491;SDS011;14927;51.210;6.838;2023-08-31T13:52:55;3.05;;;1.20;;
27491;SDS011;14927;51.210;6.838;2023-08-31T13:55:40;2.22;;;1.15;;
27491;SDS011;14927;51.210;6.838;2023-08-31T13:58:25;2.95;;;1.35;;
27491;SDS011;14927;51.210;6.838;2023-08-31T14:01:14;4.15;;;1.23;;
27491;SDS011;14927;51.210;6.838;2023-08-31T14:03:59;5.15;;;1.20;;
27491;SDS011;14927;51.210;6.838;2023-08-31T14:06:45;3.05;;;1.40;;
27491;SDS011;14927;51.210;6.838;2023-08-31T14:09:32;3.63;;;1.30;;
27491;SDS011;14927;51.210;6.838;2023-08-31T14:12:18;4.95;;;1.05;;
27491;SDS011;14927;51.210;6.838;2023-08-31T14:15:05;2.03;;;0.98;;
27491;SDS011;14927;51.210;6.838;2023-08-31T14:17:56;2.30;;;1.15;;
27491;SDS011;14927;51.210;6.838;2023-08-31T14:20:41;3.13;;;1.20;;
27491;SDS011;14927;51.210;6.838;2023-08-31T14:23:30;5.65;;;1.23;;
27491;SDS011;14927;51.210;6.838;2023-08-31T14:26:19;6.75;;;1.85;;
27491;SDS011;14927;51.210;6.838;2023-08-31T14:29:07;7.18;;;1.33;;
27491;SDS011;14927;51.210;6.838;2023-08-31T14:31:52;4.60;;;1.63;;
27491;SDS011;14927;51.210;6.838;2023-08-31T14:34:40;6.72;;;1.38;;
27491;SDS011;14927;51.210;6.838;2023-08-31T14:37:31;4.35;;;1.20;;
27491;SDS011;14927;51.210;6.838;2023-08-31T14:40:19;4.05;;;1.35;;
27491;SDS011;14927;51.210;6.838;2023-08-31T14:43:25;7.35;;;1.20;;
27491;SDS011;14927;51.210;6.838;2023-08-31T14:46:24;4.07;;;1.20;;
27491;SDS011;14927;51.210;6.838;2023-08-31T14:49:12;2.25;;;1.05;;
27491;SDS011;14927;51.210;6.838;2023-08-31T14:52:00;2.85;;;1.48;;
27491;SDS011;14927;51.210;6.838;2023-08-31T14:54:49;4.00;;;1.42;;
27491;SDS011;14927;51.210;6.838;2023-08-31T14:57:37;12.52;;;1.90;;
27491;SDS011;14927;51.210;6.838;2023-08-31T15:00:26;2.25;;;1.17;;
27491;SDS011;14927;51.210;6.838;2023-08-31T15:06:11;7.75;;;1.40;;
27491;SDS011;14927;51.210;6.838;2023-08-31T15:08:57;2.35;;;1.40;;
27491;SDS011;14927;51.210;6.838;2023-08-31T15:11:42;3.95;;;1.40;;
27491;SDS011;14927;51.210;6.838;2023-08-31T15:14:35;7.97;;;1.95;;
27491;SDS011;14927;51.210;6.838;2023-08-31T15:17:22;5.75;;;1.38;;
27491;SDS011;14927;51.210;6.838;2023-08-31T15:20:07;6.93;;;1.52;;
27491;SDS011;14927;51.210;6.838;2023-08-31T15:22:53;5.45;;;1.60;;
27491;SDS011;14927;51.210;6.838;2023-08-31T15:25:50;10.45;;;1.67;;
27491;SDS011;14927;51.210;6.838;2023-08-31T15:28:46;5.55;;;1.30;;
27491;SDS011;14927;51.210;6.838;2023-08-31T15:31:32;5.40;;;1.60;;
27491;SDS011;14927;51.210;6.838;2023-08-31T15:34:20;3.95;;;1.30;;
27491;SDS011;14927;51.210;6.838;2023-08-31T15:37:08;4.38;;;1.67;;
27491;SDS011;14927;51.210;6.838;2023-08-31T15:39:58;4.88;;;2.17;;
27491;SDS011;14927;51.210;6.838;2023-08-31T15:42:49;8.95;;;2.17;;
27491;SDS011;14927;51.210;6.838;2023-08-31T15:45:33;5.20;;;2.10;;
27491;SDS011;14927;51.210;6.838;2023-08-31T15:48:19;4.97;;;2.50;;
27491;SDS011;14927;51.210;6.838;2023-08-31T15:51:10;2.75;;;1.50;;
27491;SDS011;14927;51.210;6.838;2023-08-31T15:53:54;4.00;;;1.73;;
27491;SDS011;14927;51.210;6.838;2023-08-31T15:56:42;4.50;;;1.92;;
27491;SDS011;14927;51.210;6.838;2023-08-31T15:59:29;2.20;;;1.52;;
27491;SDS011;14927;51.210;6.838;2023-08-31T16:02:15;5.72;;;2.08;;
27491;SDS011;14927;51.210;6.838;2023-08-31T16:05:06;5.85;;;1.80;;
27491;SDS011;14927;51.210;6.838;2023-08-31T16:07:51;4.40;;;1.73;;
27491;SDS011;14927;51.210;6.838;2023-08-31T16:10:36;3.13;;;1.60;;
27491;SDS011;14927;51.210;6.838;2023-08-31T16:13:24;2.72;;;1.60;;
27491;SDS011;14927;51.210;6.838;2023-08-31T16:16:21;3.30;;;1.48;;
27491;SDS011;14927;51.210;6.838;2023-08-31T16:19:07;4.15;;;1.80;;
27491;SDS011;14927;51.210;6.838;2023-08-31T16:21:54;4.65;;;1.88;;
27491;SDS011;14927;51.210;6.838;2023-08-31T16:24:38;3.17;;;1.60;;
27491;SDS011;14927;51.210;6.838;2023-08-31T16:27:23;4.47;;;1.83;;
27491;SDS011;14927;51.210;6.838;2023-08-31T16:30:08;7.38;;;2.20;;
27491;SDS011;14927;51.210;6.838;2023-08-31T16:32:59;9.70;;;1.98;;
27491;SDS011;14927;51.210;6.838;2023-08-31T16:35:44;6.55;;;2.22;;
27491;SDS011;14927;51.210;6.838;2023-08-31T16:38:32;6.32;;;2.13;;
27491;SDS011;14927;51.210;6.838;2023-08-31T16:41:17;5.88;;;2.58;;
27491;SDS011;14927;51.210;6.838;2023-08-31T16:44:02;3.40;;;1.50;;
27491;SDS011;14927;51.210;6.838;2023-08-31T16:46:48;3.40;;;1.88;;
27491;SDS011;14927;51.210;6.838;2023-08-31T16:49:33;3.90;;;1.80;;
27491;SDS011;14927;51.210;6.838;2023-08-31T16:52:18;4.22;;;1.83;;
27491;SDS011;14927;51.210;6.838;2023-08-31T16:55:04;5.25;;;1.90;;
27491;SDS011;14927;51.210;6.838;2023-08-31T16:57:52;4.82;;;2.05;;
27491;SDS011;14927;51.210;6.838;2023-08-31T17:00:37;4.50;;;1.45;;
27491;SDS011;14927;51.210;6.838;2023-08-31T17:03:22;5.13;;;1.80;;
27491;SDS011;14927;51.210;6.838;2023-08-31T17:06:11;4.03;;;1.65;;